Tiempo atmosférico en la estación meteorológica de Quinto, Zaragoza (205 m.)



Fecha
DESCASC
Temp. máxima en grados centígrados (hora)
DESCASC
Temp. mínima en grados centígrados (hora)
DESCASC
Temp. media en grados centígrados
DESCASC
Racha de viento máxima en m/sg (hora)
DESCASC
Velocidad máxima media en intervalos de 10 minutos(hora)
DESCASC
Precipitaciones diarias en mm
DESCASC
Precipitaciones de 00:00 a 06:00 en mm
DESCASC
Precipitaciones de 06:00 a 12:00 en mm
DESCASC
Precipitaciones de 12:00 a 18:00 en mm
DESCASC
Precipitaciones de 18:00 a 24:00 en mm
DESCASC
05-04-2020 20.5 (17:50) 6.1 (04:20) 13.3 9.17 (18:30) 4.72 (18:30) 0 0 0 0 0
04-04-2020 21.3 (16:10) 1.3 (07:40) 11.3 10 (18:50) 5.83 (17:50) 0 0 0 0 0
03-04-2020 16.8 (17:50) 6.9 (06:20) 11.8 13.89 (02:30) 8.89 (04:30) 0 0 0 0 0
02-04-2020 17.1 (18:40) 8.6 (00:00) 12.9 10.83 (23:59) 7.5 (23:59) 0.2 0 0.2 0 0
01-04-2020 11.4 (18:40) 5 (00:00) 8.2 4.44 (09:00) 3.06 (10:30) 11.2 0.4 1.6 9.2 0
31-03-2020 6.1 (00:00) 1.3 (00:00) 3.7 4.17 (14:40) 3.06 (15:00) 15.4 4.4 0.8 9 1.2
30-03-2020 11.3 (16:40) 5.5 (00:00) 8.4 18.89 (05:40) 12.22 (05:40) 0 0 0 0 0
29-03-2020 18.6 (16:30) 4.4 (00:00) 11.5 17.5 (23:59) 11.11 (23:50) 0 0 0 0 0
28-03-2020 19.5 (17:10) 5.3 (00:00) 12.4 6.11 (12:00) 4.17 (11:30) 0 0 0 0 0
27-03-2020 15.1 (17:10) 0.7 (00:00) 7.9 4.72 (14:50) 2.78 (10:00) 0 0 0 0 0
26-03-2020 15.3 (16:50) 2.9 (00:00) 9.1 16.67 (10:20) 10.83 (10:50) 0 0 0 0 0
25-03-2020 13.4 (17:00) 5.5 (00:00) 9.4 6.94 (09:30) 4.17 (10:30) 1.2 1.2 0 0 0
24-03-2020 16.2 (16:40) 7.1 (00:00) 11.7 7.22 (11:10) 4.44 (18:40) 0 0 0 0 0
23-03-2020 16 (15:40) 9.7 (00:00) 12.8 7.5 (18:00) 4.44 (18:00) 3.2 0.4 1.2 1.6 0
22-03-2020 18.2 (14:30) 6 (07:40) 12.1 8.06 (14:40) 4.72 (14:40) 0 0 0 0 0
21-03-2020 18.8 (16:10) 3.1 (00:00) 10.9 6.39 (13:40) 3.89 (13:40) 0 0 0 0 0
20-03-2020 18.1 (15:30) 4.3 (00:00) 11.2 8.06 (18:40) 5 (15:40) 0 0 0 0 0
19-03-2020 19.2 (16:00) 5.7 (00:00) 12.5 8.89 (16:10) 5.28 (18:30) 0 0 0 0 0
18-03-2020 14.9 (17:00) 8.2 (00:00) 11.5 4.17 (09:20) 3.06 (09:20) 0 0 0 0 0
17-03-2020 16.9 (16:00) 10.2 (00:00) 13.5 8.61 (03:00) 4.17 (03:50) 1.8 0.6 0.8 0.4 0
16-03-2020 12.8 (00:00) 6.2 (00:00) 9.5 10.28 (15:00) 6.11 (14:40) 17.8 7.8 4.8 2 3.2
15-03-2020 21.1 (14:20) 1 (00:00) 11.1 6.94 (21:20) 4.44 (21:20) 2.2 0 0 1.6 0.6
14-03-2020 20.4 (17:30) 6.5 (00:00) 13.4 10.56 (10:40) 6.94 (11:30) 0 0 0 0 0
13-03-2020 19 (16:30) 11.3 (23:59) 15.2 11.67 (10:00) 7.22 (09:40) 0 0 0 0 0
12-03-2020 26.6 (16:10) 6.4 (00:00) 16.5 13.33 (23:10) 8.33 (23:10) 0 0 0 0 0
11-03-2020 26.4 (17:10) 6.6 (00:00) 16.5 8.33 (14:00) 4.72 (12:50) 0 0 0 0 0
10-03-2020 22.4 (16:20) 8.9 (00:00) 15.6 13.89 (00:30) 8.61 (12:50) 0 0 0 0 0
09-03-2020 16 (14:50) 9.7 (00:00) 12.8 21.67 (16:00) 12.22 (16:00) 0 0 0 0 0
08-03-2020 18.9 (15:10) 1.7 (00:00) 10.3 9.44 (16:00) 5.56 (15:50) 0 0 0 0 0

Gráficas

Temp. máximas Temp. mínimas Temp. medias Precipitaciones Rachas de viento máximas Velocidades máximas media en intervalos de 10 minutos

Datos horarios

Fecha y hora oficial Temperatura (ºC) Velocidad del viento (km/h) Dirección del viento Racha (km/h) Dirección de racha Precipitación (mm) Presión (hPa) Tendencia (hPa) Humedad (%)
2020-04-06 23:00:00 13.9 7 Este 16 Este 0 -- -- 79
2020-04-06 22:00:00 14.1 8 Este 15 Este 0 -- -- 79
2020-04-06 21:00:00 15 8 Este 19 Este 0 -- -- 77
2020-04-06 20:00:00 16.4 9 Este 24 Este 0 -- -- 73
2020-04-06 19:00:00 17.8 8 Este 23 Sudeste 0 -- -- 70
2020-04-06 18:00:00 19 7 Este 18 Este 0.2 -- -- 67
2020-04-06 17:00:00 20.5 5 Este 19 Este 0 -- -- 54
2020-04-06 16:00:00 21.3 12 Este 23 Este 0 -- -- 49
2020-04-06 15:00:00 21 11 Este 27 Este 0 -- -- 52
2020-04-06 14:00:00 19.5 10 Nordeste 22 Este 0 -- -- 58
2020-04-06 13:00:00 17.5 9 Nordeste 25 Este 0 -- -- 61
2020-04-06 12:00:00 16.4 14 Este 22 Este 0 -- -- 63
2020-04-06 11:00:00 14.8 10 Este 23 Este 0 -- -- 67
2020-04-06 10:00:00 11.8 6 Este 11 Sudeste 0 -- -- 78
2020-04-06 09:00:00 10.7 0 Calma 5 Sudeste 0 -- -- 83
2020-04-06 08:00:00 10.2 0 Calma 10 Este 0 -- -- 86
2020-04-06 07:00:00 10.1 3 Sur 8 Sudoeste 0 -- -- 86
2020-04-06 06:00:00 10.2 0 Calma 4 Sudeste 0 -- -- 84
2020-04-06 05:00:00 10.1 3 Sudoeste 5 Sudoeste 0 -- -- 87
2020-04-06 04:00:00 10.4 2 Este 8 Este 0 -- -- 83
2020-04-06 03:00:00 10.5 0 Calma 15 Este 0 -- -- 85
2020-04-06 02:00:00 10.6 9 Este 22 Este 0 -- -- 85
2020-04-06 01:00:00 11 8 Este 19 Este 0 -- -- 84
2020-04-06 00:00:00 11.8 10 Este 15 Este 0 -- -- 82
2020-04-05 23:00:00 12.5 9 Este 18 Nordeste 0 -- -- 77
2020-04-05 22:00:00 13.5 13 Sudeste 25 Sudeste 0 -- -- 71
2020-04-05 21:00:00 14.6 10 Sudeste 19 Este 0 -- -- 67
2020-04-05 20:00:00 17 11 Este 28 Este 0 -- -- 58
2020-04-05 19:00:00 19.2 16 Este 33 Nordeste 0 -- -- 53
2020-04-05 18:00:00 20.2 17 Este 28 Este 0 -- -- 47
2020-04-05 17:00:00 19.6 17 Este 27 Este 0 -- -- 46
2020-04-05 16:00:00 19.6 12 Este 21 Este 0 -- -- 47
2020-04-05 15:00:00 19.1 10 Este 23 Este 0 -- -- 48
2020-04-05 14:00:00 18 14 Este 22 Este 0 -- -- 47
2020-04-05 13:00:00 17 10 Sudeste 18 Sudeste 0 -- -- 51
2020-04-05 12:00:00 15.3 4 Este 14 Sudeste 0 -- -- 64
2020-04-05 11:00:00 13.7 6 Sudeste 17 Este 0 -- -- 71
2020-04-05 10:00:00 10.5 6 Sudeste 9 Sudeste 0 -- -- 84
2020-04-05 09:00:00 7.3 4 Sudoeste 7 Sudoeste 0 -- -- 93
2020-04-05 08:00:00 6.5 2 Oeste 7 Este 0 -- -- 90
2020-04-05 07:00:00 6.9 4 Este 11 Sudeste 0 -- -- 91
2020-04-05 06:00:00 7.5 6 Sur 17 Este 0 -- -- 83
2020-04-05 05:00:00 7.1 7 Sudeste 13 Sudeste 0 -- -- 91
2020-04-05 04:00:00 6.6 0 Calma 8 Sudoeste 0 -- -- 83
2020-04-05 03:00:00 8.6 5 Este 10 Este 0 -- -- 80
2020-04-05 02:00:00 9.9 4 Este 14 Este 0 -- -- 72
2020-04-05 01:00:00 10.8 8 Este 17 Este 0 -- -- 72
2020-04-05 00:00:00 10.6 8 Este 21 Este 0 -- -- 78
2020-04-04 23:00:00 11.4 14 Este 24 Este 0 -- -- 75
2020-04-04 22:00:00 12.8 17 Este 30 Este 0 -- -- 70
2020-04-04 21:00:00 14.3 15 Este 33 Nordeste 0 -- -- 67
2020-04-04 20:00:00 17.3 18 Este 36 Este 0 -- -- 56
2020-04-04 19:00:00 19.5 18 Este 36 Este 0 -- -- 49
2020-04-04 18:00:00 20.7 18 Este 36 Este 0 -- -- 45
2020-04-04 17:00:00 21.1 18 Este 34 Este 0 -- -- 45
2020-04-04 16:00:00 21.2 13 Este 32 Este 0 -- -- 43
2020-04-04 15:00:00 20.4 13 Este 22 Este 0 -- -- 43
2020-04-04 14:00:00 18.3 6 Este 15 Sudeste 0 -- -- 59
2020-04-04 13:00:00 16.1 5 Este 14 Sudeste 0 -- -- 66
2020-04-04 12:00:00 14 4 Sudeste 10 Sudeste 0 -- -- 70
2020-04-04 11:00:00 11 5 Sudeste 9 Este 0 -- -- 78
2020-04-04 10:00:00 7.1 3 Sur 6 Sudoeste 0 -- -- 96
2020-04-04 09:00:00 3.1 2 Sudoeste 5 Sudoeste 0 -- -- 96
2020-04-04 08:00:00 1.4 3 Oeste 7 Sudoeste 0 -- -- 94
2020-04-04 07:00:00 1.9 7 Sudoeste 9 Sudoeste 0 -- -- 92
2020-04-04 06:00:00 2.9 2 Este 5 Nordeste 0 -- -- 92
2020-04-04 05:00:00 3.3 0 Calma 4 Sudoeste 0 -- -- 91
2020-04-04 04:00:00 3.9 0 Calma 6 Sudeste 0 -- -- 91
2020-04-04 03:00:00 4.4 0 Calma 4 Sur 0 -- -- 87
2020-04-04 02:00:00 5.8 2 Sur 8 Sudeste 0 -- -- 86
2020-04-04 01:00:00 6.3 4 Sudeste 9 Sur 0 -- -- 85
2020-04-04 00:00:00 6.9 6 Sudeste 9 Sudeste 0 -- -- 85
2020-04-03 23:00:00 7.6 0 Calma 13 Sudoeste 0 -- -- 82
2020-04-03 22:00:00 9.1 10 Sudoeste 17 Sudoeste 0 -- -- 76
2020-04-03 21:00:00 12.2 6 Sudoeste -- -- 0 -- -- 69
2020-04-03 20:00:00 16.2 6 Oeste 13 Oeste 0 -- -- 48
2020-04-03 19:00:00 16.7 9 Oeste 17 Oeste 0 -- -- 45
2020-04-03 18:00:00 16.8 11 Oeste 21 Oeste 0 -- -- 45
2020-04-03 17:00:00 16.1 12 Noroeste 28 Oeste 0 -- -- 47
2020-04-03 16:00:00 15.5 13 Noroeste 27 Oeste 0 -- -- 50
2020-04-03 15:00:00 14.8 18 Oeste 30 Noroeste 0 -- -- 53
2020-04-03 14:00:00 14.5 16 Noroeste 29 Noroeste 0 -- -- 55
2020-04-03 13:00:00 13.1 20 Noroeste 32 Noroeste 0 -- -- 55
2020-04-03 12:00:00 11.8 21 Noroeste 37 Noroeste 0 -- -- 59
2020-04-03 11:00:00 9.5 19 Noroeste 40 Noroeste 0 -- -- 63
2020-04-03 10:00:00 8.6 22 Noroeste 44 Oeste 0 -- -- 65
2020-04-03 09:00:00 7.6 23 Noroeste 42 Oeste 0 -- -- 68
2020-04-03 08:00:00 7.2 23 Noroeste 43 Oeste 0 -- -- 69
2020-04-03 07:00:00 7 30 Noroeste 48 Noroeste 0 -- -- 69
2020-04-03 06:00:00 7.1 25 Noroeste 44 Oeste 0 -- -- 69
2020-04-03 05:00:00 7.6 25 Oeste 50 Oeste 0 -- -- 67
2020-04-03 04:00:00 8.1 28 Noroeste 48 Noroeste 0 -- -- 67
2020-04-03 03:00:00 8.5 29 Noroeste 50 Oeste 0 -- -- 65
2020-04-03 02:00:00 8.8 29 Noroeste 47 Noroeste 0 -- -- 63
2020-04-03 01:00:00 10.1 25 Noroeste 48 Noroeste 0 -- -- 61
2020-04-03 00:00:00 11.4 27 Noroeste 39 Noroeste 0 -- -- 62
2020-04-02 23:00:00 12.2 22 Noroeste 38 Noroeste 0 -- -- 63
2020-04-02 22:00:00 13.6 12 Noroeste 21 Noroeste 0 -- -- 67
2020-04-02 21:00:00 13.9 4 Sur 6 Sur 0 -- -- 78
2020-04-02 20:00:00 14.7 5 Noroeste 14 Oeste 0 -- -- 69
2020-04-02 19:00:00 16.6 6 Oeste 11 Oeste 0 -- -- 60
2020-04-02 18:00:00 17 4 Oeste 13 Noroeste 0 -- -- 57
2020-04-02 17:00:00 15.4 8 Noroeste 14 Norte 0 -- -- 64
2020-04-02 16:00:00 15.4 6 Noroeste 15 Noroeste 0 -- -- 63
2020-04-02 15:00:00 14.1 9 Noroeste 16 Noroeste 0 -- -- 73
2020-04-02 14:00:00 13.5 10 Noroeste 18 Norte 0 -- -- 76
2020-04-02 13:00:00 12.2 5 Noroeste 14 Norte 0 -- -- 80
2020-04-02 12:00:00 11.7 7 Noroeste 12 Noroeste 0 -- -- 84
2020-04-02 11:00:00 9.9 4 Norte 9 Nordeste 0 -- -- 94
2020-04-02 10:00:00 9.4 5 Norte 10 Noroeste 0.2 -- -- 96
2020-04-02 09:00:00 9 3 Noroeste 4 Oeste 0 -- -- 96
2020-04-02 08:00:00 8.8 2 Norte 4 Norte 0 -- -- 95
2020-04-02 07:00:00 8.7 0 Calma 5 Oeste 0 -- -- 95
2020-04-02 06:00:00 8.6 0 Calma 6 Noroeste 0 -- -- 96
2020-04-02 05:00:00 8.6 3 Noroeste 8 Noroeste 0 -- -- 96
2020-04-02 04:00:00 8.8 5 Noroeste 9 Noroeste 0 -- -- 95
2020-04-02 03:00:00 9.2 5 Oeste 8 Noroeste 0 -- -- 95
2020-04-02 02:00:00 9.3 3 Noroeste 4 Norte 0 -- -- 95
2020-04-02 01:00:00 9.5 2 Norte 4 Oeste 0 -- -- 94
2020-04-02 00:00:00 9.7 3 Noroeste 6 Sudoeste 0 -- -- 94
2020-04-01 23:00:00 9.9 4 Sudoeste 5 Sudoeste 0 -- -- 93
2020-04-01 22:00:00 10.2 0 Calma 9 Este 0 -- -- 92
2020-04-01 21:00:00 10.4 7 Sudeste 14 Este 0 -- -- 90
2020-04-01 20:00:00 10.9 8 Este 13 Este 0 -- -- 91
2020-04-01 19:00:00 11.4 7 Este 13 Este 0 -- -- 91
2020-04-01 18:00:00 11.2 4 Nordeste 12 Norte 0 -- -- 94
2020-04-01 17:00:00 10.6 8 Norte 14 Norte 0.6 -- -- 97
2020-04-01 16:00:00 10 8 Norte 13 Noroeste 2.2 -- -- 98
2020-04-01 15:00:00 9 8 Norte 13 Norte 2.4 -- -- 97
2020-04-01 14:00:00 8.7 8 Noroeste 12 Noroeste 2.4 -- -- 97
2020-04-01 13:00:00 8.1 8 Noroeste 12 Noroeste 1.6 -- -- 97
2020-04-01 12:00:00 7.6 5 Noroeste 12 Oeste 0.4 -- -- 97
2020-04-01 11:00:00 7.2 5 Noroeste 16 Noroeste 0.2 -- -- 97
2020-04-01 10:00:00 6.5 9 Noroeste 15 Noroeste 0.6 -- -- 97
2020-04-01 09:00:00 5.9 9 Noroeste 16 Noroeste 0.2 -- -- 97
2020-04-01 08:00:00 5.7 4 Norte 7 Noroeste 0.2 -- -- 96
2020-04-01 07:00:00 5.8 0 Calma 9 Nordeste 0 -- -- 96
2020-04-01 06:00:00 5.7 0 Calma 5 Nordeste 0 -- -- 96
2020-04-01 05:00:00 5.6 0 Calma 3 Sudoeste 0 -- -- 96
2020-04-01 04:00:00 5.4 0 Calma 8 Sudoeste 0 -- -- 96
2020-04-01 03:00:00 5.3 3 Sudoeste 6 Sudoeste 0 -- -- 96
2020-04-01 02:00:00 5.2 0 Calma 4 Oeste 0.2 -- -- 96
2020-04-01 01:00:00 5.1 0 Calma 5 Sudoeste 0.2 -- -- 96
2020-04-01 00:00:00 5 2 Sudoeste 8 Sudoeste 0.2 -- -- 96
2020-03-31 23:00:00 4.8 6 Sudoeste 8 Sudoeste 0 -- -- 96
2020-03-31 22:00:00 4.7 5 Oeste 8 Noroeste 0.2 -- -- 96
2020-03-31 21:00:00 4.5 6 Noroeste 10 Noroeste 0.2 -- -- 95
2020-03-31 20:00:00 4.5 7 Noroeste 11 Noroeste 0.6 -- -- 95
2020-03-31 19:00:00 4.6 7 Noroeste 11 Noroeste 0 -- -- 93
2020-03-31 18:00:00 4.6 5 Noroeste 12 Noroeste 1.6 -- -- 93
2020-03-31 17:00:00 4.6 9 Noroeste 14 Noroeste 0.4 -- -- 92
2020-03-31 16:00:00 4.5 8 Noroeste 15 Noroeste 0.8 -- -- 94
2020-03-31 15:00:00 4.1 11 Noroeste 15 Noroeste 1.2 -- -- 94
2020-03-31 14:00:00 3.7 9 Noroeste 14 Noroeste 2.8 -- -- 95
2020-03-31 13:00:00 3.4 5 Noroeste 9 Noroeste 2.2 -- -- 95
2020-03-31 12:00:00 2.9 6 Noroeste 8 Noroeste 0.6 -- -- 95
2020-03-31 11:00:00 2.7 5 Noroeste 7 Oeste 0 -- -- 95
2020-03-31 10:00:00 2.3 5 Noroeste 7 Noroeste 0 -- -- 94
2020-03-31 09:00:00 1.9 3 Noroeste 6 Noroeste 0 -- -- 94
2020-03-31 08:00:00 1.6 2 Noroeste 5 Noroeste 0.2 -- -- 93
2020-03-31 07:00:00 1.4 4 Norte 7 Norte 0 -- -- 92
2020-03-31 06:00:00 1.6 4 Oeste 6 Noroeste 1.2 -- -- 90
2020-03-31 05:00:00 2.6 2 Norte 8 Noroeste 1.6 -- -- 88
2020-03-31 04:00:00 3.4 4 Noroeste 8 Noroeste 1.2 -- -- 86
2020-03-31 03:00:00 3.9 4 Noroeste 9 Noroeste 0.4 -- -- 85
2020-03-31 02:00:00 4.6 3 Norte 7 Noroeste 0 -- -- 79
2020-03-31 01:00:00 5.5 4 Norte 10 Norte 0 -- -- 71
2020-03-31 00:00:00 6.1 2 Nordeste 12 Noroeste 0 -- -- 63
2020-03-30 23:00:00 6.4 6 Noroeste 13 Norte 0 -- -- 60
2020-03-30 22:00:00 6.9 7 Norte 14 Norte 0 -- -- 54
2020-03-30 21:00:00 7.2 6 Sudeste 13 Sudeste 0 -- -- 56
2020-03-30 20:00:00 7.9 8 Sudeste 31 Oeste 0 -- -- 49
2020-03-30 19:00:00 8.9 16 Oeste 28 Oeste 0 -- -- 44
2020-03-30 18:00:00 9.8 20 Oeste 30 Oeste 0 -- -- 40
2020-03-30 17:00:00 10.7 21 Noroeste 41 Noroeste 0 -- -- 39
2020-03-30 16:00:00 10.4 20 Oeste 39 Oeste 0 -- -- 40
2020-03-30 15:00:00 10.1 24 Oeste 43 Oeste 0 -- -- 40
2020-03-30 14:00:00 8.6 25 Oeste 40 Noroeste 0 -- -- 44
2020-03-30 13:00:00 7 26 Oeste 45 Oeste 0 -- -- 47
2020-03-30 12:00:00 7.1 25 Noroeste 49 Noroeste 0 -- -- 44
2020-03-30 11:00:00 6.3 29 Noroeste 55 Oeste 0 -- -- 45
2020-03-30 10:00:00 6 36 Noroeste 63 Oeste 0 -- -- 50
2020-03-30 09:00:00 5.9 39 Oeste 62 Oeste 0 -- -- 53
2020-03-30 08:00:00 5.5 34 Noroeste 62 Oeste 0 -- -- 59
2020-03-30 07:00:00 5.9 38 Noroeste 63 Noroeste 0 -- -- 61
2020-03-30 06:00:00 6.6 42 Oeste 68 Oeste 0 -- -- 62
2020-03-30 05:00:00 7.3 40 Oeste 67 Oeste 0 -- -- 66
2020-03-30 04:00:00 8.2 36 Noroeste 57 Noroeste 0 -- -- 65
2020-03-30 03:00:00 9.1 33 Noroeste 53 Oeste 0 -- -- 66
2020-03-30 02:00:00 9.5 32 Noroeste 55 Oeste 0 -- -- 69
2020-03-30 01:00:00 9.9 33 Oeste 54 Noroeste 0 -- -- 68
2020-03-30 00:00:00 10.4 36 Oeste 63 Noroeste 0 -- -- 66
2020-03-29 23:00:00 11.1 38 Noroeste 58 Oeste 0 -- -- 62
2020-03-29 22:00:00 11.7 32 Noroeste 58 Oeste 0 -- -- 57
2020-03-29 21:00:00 12.6 29 Noroeste 56 Oeste 0 -- -- 58
2020-03-29 20:00:00 14.6 28 Oeste 49 Oeste 0 -- -- 54
2020-03-29 19:00:00 16.9 27 Noroeste 48 Oeste 0 -- -- 45
2020-03-29 18:00:00 17.8 31 Oeste 51 Oeste 0 -- -- 40
2020-03-29 17:00:00 18.6 31 Noroeste 54 Oeste 0 -- -- 34
2020-03-29 16:00:00 18.4 33 Noroeste 52 Noroeste 0 -- -- 32
2020-03-29 15:00:00 17.8 28 Noroeste 49 Noroeste 0 -- -- 36
2020-03-29 14:00:00 16.9 28 Noroeste 58 Noroeste 0 -- -- 37
2020-03-29 13:00:00 15.8 24 Noroeste 37 Oeste 0 -- -- 42
2020-03-29 12:00:00 14.6 21 Noroeste 45 Oeste 0 -- -- 42
2020-03-29 11:00:00 13 26 Noroeste 46 Oeste 0 -- -- 46
2020-03-29 10:00:00 11.8 22 Oeste 35 Oeste 0 -- -- 52
2020-03-29 09:00:00 9.8 20 Oeste 33 Oeste 0 -- -- 60
2020-03-29 08:00:00 7.6 12 Oeste 21 Oeste 0 -- -- 72
2020-03-29 07:00:00 5.2 3 Este 9 Sudoeste 0 -- -- 85
2020-03-29 06:00:00 5.5 6 Oeste 10 Sudoeste 0 -- -- 84
2020-03-29 05:00:00 4.5 2 Sudeste 6 Sur 0 -- -- 87
2020-03-29 03:00:00 5.6 5 Sudoeste 8 Sudoeste 0 -- -- 86
2020-03-29 01:00:00 6.8 2 Oeste 10 Noroeste 0 -- -- 83
2020-03-29 00:00:00 7.5 0 Calma 6 Noroeste 0 -- -- 81
2020-03-28 23:00:00 9 3 Sudeste 8 Sudoeste 0 -- -- 76
2020-03-28 22:00:00 8.9 9 Sudoeste 15 Sudoeste 0 -- -- 77
2020-03-28 21:00:00 11.2 6 Sudoeste 13 Sur 0 -- -- 67
2020-03-28 20:00:00 13.3 10 Sur 15 Sur 0 -- -- 57
2020-03-28 19:00:00 16.4 8 Sur 11 Sur 0 -- -- 53
2020-03-28 18:00:00 18.1 4 Sur 11 Sur 0 -- -- 42
2020-03-28 17:00:00 19.2 3 Sudoeste 9 Oeste 0 -- -- 37
2020-03-28 16:00:00 18.1 4 Norte 11 Norte 0 -- -- 40
2020-03-28 15:00:00 17.6 7 Noroeste 14 Noroeste 0 -- -- 43
2020-03-28 14:00:00 17.2 6 Norte 15 Oeste 0 -- -- 43
2020-03-28 13:00:00 16 9 Noroeste 19 Noroeste 0 -- -- 46
2020-03-28 12:00:00 14.8 12 Noroeste 22 Noroeste 0 -- -- 49
2020-03-28 11:00:00 12.6 12 Noroeste 20 Noroeste 0 -- -- 59
2020-03-28 10:00:00 9.5 13 Noroeste 21 Noroeste 0 -- -- 69
2020-03-28 09:00:00 7 8 Noroeste 17 Noroeste 0 -- -- 78
2020-03-28 08:00:00 5.4 6 Noroeste 10 Norte 0 -- -- 85
2020-03-28 07:00:00 5.6 5 Norte 10 Oeste 0 -- -- 86
2020-03-28 06:00:00 5.3 4 Noroeste 10 Noroeste 0 -- -- 87
2020-03-28 05:00:00 5.6 7 Noroeste 13 Noroeste 0 -- -- 85
2020-03-28 04:00:00 6.2 6 Oeste 10 Oeste 0 -- -- 84
2020-03-28 03:00:00 5.6 6 Oeste 9 Oeste 0 -- -- 86
2020-03-28 02:00:00 6 4 Sur 9 Sudoeste 0 -- -- 84
2020-03-28 01:00:00 6.4 6 Sudoeste 12 Sudoeste 0 -- -- 82
2020-03-28 00:00:00 6.9 8 Sur 13 Sur 0 -- -- 80
2020-03-27 23:00:00 8.2 8 Sudoeste 12 Sudoeste 0 -- -- 72
2020-03-27 22:00:00 8.1 6 Sudoeste 10 Sudoeste 0 -- -- 73
2020-03-27 21:00:00 9.7 2 Oeste 8 Sudoeste 0 -- -- 65
2020-03-27 20:00:00 12.3 3 Oeste 4 Oeste 0 -- -- 55
2020-03-27 19:00:00 14.5 0 Calma 10 Norte 0 -- -- 37
2020-03-27 18:00:00 14.9 6 Noroeste 12 Norte 0 -- -- 38
2020-03-27 17:00:00 14.8 6 Noroeste 16 Sur 0 -- -- 39
2020-03-27 16:00:00 14.7 4 Norte 12 Sudoeste 0 -- -- 41
2020-03-27 15:00:00 14 7 Sudoeste 17 Oeste 0 -- -- 49
2020-03-27 14:00:00 13.1 8 Norte 15 Norte 0 -- -- 53
2020-03-27 13:00:00 12.4 6 Noroeste 14 Sur 0 -- -- 55
2020-03-27 12:00:00 10.3 4 Oeste 13 Sudoeste 0 -- -- 63
2020-03-27 11:00:00 9.7 5 Norte 13 Noroeste 0 -- -- 65
2020-03-27 10:00:00 7.3 10 Noroeste 15 Noroeste 0 -- -- 74
2020-03-27 09:00:00 5 9 Noroeste 15 Noroeste 0 -- -- 79
2020-03-27 08:00:00 4.3 8 Noroeste 10 Noroeste 0 -- -- 84
2020-03-27 07:00:00 3.9 0 Calma -- -- 0 -- -- 92
2020-03-27 06:00:00 3.7 0 Calma 3 Noroeste 0 -- -- 93
2020-03-27 05:00:00 3.2 0 Calma 4 Noroeste 0 -- -- 94
2020-03-27 04:00:00 2.4 2 Oeste 6 Sudoeste 0 -- -- 94
2020-03-27 03:00:00 0.8 6 Sudoeste 13 Sudoeste 0 -- -- 92
2020-03-27 02:00:00 1.6 8 Sudoeste 13 Sudoeste 0 -- -- 91
2020-03-27 01:00:00 2.8 2 Nordeste 6 Nordeste 0 -- -- 90
2020-03-27 00:00:00 3.1 4 Oeste 9 Sudoeste 0 -- -- 89
2020-03-26 23:00:00 3.8 6 Sudoeste 9 Sudoeste 0 -- -- 85
2020-03-26 22:00:00 5.8 0 Calma 13 Sudeste 0 -- -- 80
2020-03-26 21:00:00 7.2 8 Este 23 Este 0 -- -- 75
2020-03-26 20:00:00 8.3 12 Este 22 Sudeste 0 -- -- 69
2020-03-26 19:00:00 10.3 12 Este 52 Sudeste 0 -- -- 63
2020-03-26 18:00:00 13.8 22 Oeste 36 Oeste 0 -- -- 33
2020-03-26 17:00:00 15.3 23 Oeste 37 Noroeste 0 -- -- 29
2020-03-26 16:00:00 15 27 Oeste 41 Oeste 0 -- -- 29
2020-03-26 15:00:00 14.8 24 Oeste 48 Oeste 0 -- -- 30
2020-03-26 14:00:00 14.1 28 Noroeste 49 Noroeste 0 -- -- 31
2020-03-26 13:00:00 14 26 Noroeste 54 Noroeste 0 -- -- 37
2020-03-26 12:00:00 13 33 Noroeste 58 Noroeste 0 -- -- 41
2020-03-26 11:00:00 12.3 38 Noroeste 60 Noroeste 0 -- -- 45
2020-03-26 10:00:00 11.4 35 Noroeste 57 Noroeste 0 -- -- 59
2020-03-26 09:00:00 9.5 21 Noroeste 37 Noroeste 0 -- -- 71
2020-03-26 08:00:00 5.1 11 Noroeste 15 Noroeste 0 -- -- 84
2020-03-26 07:00:00 3.1 5 Sudoeste 9 Sudoeste 0 -- -- 87
2020-03-26 06:00:00 4.1 3 Este 10 Sur 0 -- -- 86
2020-03-26 05:00:00 4.1 7 Sudoeste 22 Oeste 0 -- -- 84
2020-03-26 04:00:00 6 12 Noroeste 24 Noroeste 0 -- -- 87
2020-03-26 03:00:00 5.5 10 Oeste 17 Noroeste 0 -- -- 93
2020-03-26 02:00:00 5.6 5 Oeste 10 Noroeste 0 -- -- 90
2020-03-26 01:00:00 6.1 6 Noroeste 13 Noroeste 0 -- -- 91
2020-03-26 00:00:00 5.7 3 Sudoeste 6 Sudoeste 0 -- -- 90
2020-03-25 23:00:00 7.1 0 Calma 9 Este 0 -- -- 81
2020-03-25 22:00:00 8 5 Este 9 Este 0 -- -- 79
2020-03-25 21:00:00 8.2 4 Este 10 Este 0 -- -- 78
2020-03-25 20:00:00 9.5 5 Nordeste 11 Nordeste 0 -- -- 72
2020-03-25 19:00:00 11.3 2 Este 8 Nordeste 0 -- -- 63
2020-03-25 18:00:00 12.3 5 Nordeste 10 Sur 0 -- -- 59
2020-03-25 17:00:00 13.4 4 Este 13 Sur 0 -- -- 57
2020-03-25 16:00:00 11.6 4 Sudeste 9 Sur 0 -- -- 63
2020-03-25 15:00:00 10.8 3 Oeste 9 Este 0 -- -- 66
2020-03-25 14:00:00 10.3 6 Nordeste 21 Este 0 -- -- 66
2020-03-25 13:00:00 10.3 13 Este 24 Este 0 -- -- 66
2020-03-25 12:00:00 9.2 9 Este 25 Nordeste 0 -- -- 72
2020-03-25 11:00:00 8 14 Este 24 Sudeste 0 -- -- 77
2020-03-25 10:00:00 8 10 Este 25 Este 0 -- -- 81
2020-03-25 09:00:00 8 13 Este 24 Este 0 -- -- 82
2020-03-25 08:00:00 8 6 Este 19 Este 0 -- -- 85
2020-03-25 07:00:00 8 10 Este 19 Sudeste 0 -- -- 84
2020-03-25 06:00:00 8.2 12 Sudeste 21 Sudeste 0.2 -- -- 86
2020-03-25 05:00:00 8.4 10 Sudeste 18 Sudeste 0 -- -- 88
2020-03-25 04:00:00 8.5 8 Este 14 Este 0.6 -- -- 90
2020-03-25 03:00:00 9 4 Nordeste 18 Este 0.4 -- -- 87
2020-03-25 02:00:00 9.8 8 Este 19 Este 0 -- -- 82
2020-03-25 01:00:00 10.2 9 Este 17 Este 0 -- -- 78
2020-03-25 00:00:00 10.7 5 Sudeste 19 Este 0 -- -- 76
2020-03-24 23:00:00 11.1 14 Sudeste 23 Sudeste 0 -- -- 73
2020-03-24 22:00:00 11.5 14 Sudeste 24 Sudeste 0 -- -- 72
2020-03-24 21:00:00 12 13 Sudeste 21 Este 0 -- -- 69
2020-03-24 20:00:00 12.6 12 Sudeste 21 Sudeste 0 -- -- 66
2020-03-24 19:00:00 13.8 12 Sudeste 23 Sudeste 0 -- -- 61
2020-03-24 18:00:00 15.4 11 Sudeste 22 Sudeste 0 -- -- 59
2020-03-24 17:00:00 15.9 13 Sudeste 21 Este 0 -- -- 58
2020-03-24 16:00:00 16 10 Sudeste 18 Sudeste 0 -- -- 55
2020-03-24 15:00:00 16.1 10 Sudeste 18 Este 0 -- -- 54
2020-03-24 14:00:00 15.4 11 Este 21 Este 0 -- -- 55
2020-03-24 13:00:00 15.5 9 Este 26 Sudeste 0 -- -- 57
2020-03-24 12:00:00 15.5 10 Este 26 Este 0 -- -- 59
2020-03-24 11:00:00 14.6 12 Este 24 Este 0 -- -- 59
2020-03-24 10:00:00 12.7 11 Este 20 Este 0 -- -- 74
2020-03-24 09:00:00 10.8 5 Nordeste 10 Nordeste 0 -- -- 87
2020-03-24 08:00:00 9.5 4 Nordeste 8 Nordeste 0 -- -- 93
2020-03-24 07:00:00 8.8 0 Calma 5 Norte 0 -- -- 93
2020-03-24 06:00:00 8.8 2 Este 8 Sudeste 0 -- -- 94
2020-03-24 05:00:00 8.6 3 Norte 6 Norte 0 -- -- 95
2020-03-24 04:00:00 8.3 3 Norte 6 Norte 0 -- -- 95
2020-03-24 03:00:00 7.1 6 Oeste 9 Sudoeste 0 -- -- 93
2020-03-24 02:00:00 8.2 3 Norte 9 Norte 0 -- -- 93
2020-03-24 01:00:00 8.4 5 Oeste 8 Sudoeste 0 -- -- 91
2020-03-24 00:00:00 9.7 5 Oeste 11 Este 0 -- -- 88
2020-03-23 23:00:00 10.7 6 Este 13 Este 0 -- -- 88
2020-03-23 22:00:00 11.8 8 Este 14 Este 0 -- -- 87
2020-03-23 21:00:00 11.8 6 Este 11 Este 0 -- -- 88
2020-03-23 20:00:00 12.7 5 Sudeste 18 Este 0 -- -- 84
2020-03-23 19:00:00 13.8 12 Este 26 Este 0 -- -- 79
2020-03-23 18:00:00 14.8 16 Este 27 Este 0 -- -- 71
2020-03-23 17:00:00 14.8 13 Este 26 Este 0 -- -- 76
2020-03-23 16:00:00 15.4 13 Este 22 Este 0 -- -- 75
2020-03-23 15:00:00 15.1 6 Este 15 Este 0.4 -- -- 83
2020-03-23 14:00:00 13.3 10 Sur 19 Sur 0.6 -- -- 87
2020-03-23 13:00:00 13.9 9 Sur 14 Sudoeste 0.6 -- -- 88
2020-03-23 12:00:00 12.7 10 Sur 15 Sur 1 -- -- 86
2020-03-23 11:00:00 13.3 4 Sudoeste 8 Sudoeste 0 -- -- 82
2020-03-23 10:00:00 11.9 5 Noroeste 9 Noroeste 0 -- -- 89
2020-03-23 09:00:00 10.8 5 Noroeste 7 Noroeste 0 -- -- 94
2020-03-23 08:00:00 10 3 Noroeste 6 Norte 0 -- -- 94
2020-03-23 07:00:00 10 3 Oeste 7 Sudoeste 0.2 -- -- 92
2020-03-23 06:00:00 10.3 5 Sur 8 Sur 0.4 -- -- 90
2020-03-23 05:00:00 10.3 3 Sudoeste 5 Norte 0 -- -- 87
2020-03-23 04:00:00 10 0 Calma 6 Este 0 -- -- 87
2020-03-23 03:00:00 10.1 3 Este 7 Nordeste 0 -- -- 86
2020-03-23 02:00:00 10.9 2 Este 10 Este 0 -- -- 83
2020-03-23 01:00:00 11.6 5 Este 12 Este 0 -- -- 85
2020-03-23 00:00:00 12 9 Este 20 Este 0 -- -- 82
2020-03-22 23:00:00 11.1 6 Sudeste 11 Este 0 -- -- 84
2020-03-22 22:00:00 11.2 3 Nordeste 6 Nordeste 0 -- -- 81
2020-03-22 21:00:00 11.6 3 Nordeste 6 Nordeste 0 -- -- 78
2020-03-22 20:00:00 12.6 3 Oeste 9 Sudeste 0 -- -- 74
2020-03-22 19:00:00 13.8 5 Sudeste 14 Sudeste 0 -- -- 69
2020-03-22 18:00:00 14.4 9 Sudeste 23 Este 0 -- -- 67
2020-03-22 17:00:00 15.2 12 Sudeste 21 Este 0 -- -- 63
2020-03-22 16:00:00 15.7 12 Sudeste 28 Sudeste 0 -- -- 62
2020-03-22 15:00:00 17.2 17 Sudeste 29 Sudeste 0 -- -- 55
2020-03-22 14:00:00 17.7 3 Sur 14 Este 0 -- -- 54
2020-03-22 13:00:00 17.3 8 Sudeste 13 Sudeste 0 -- -- 58
2020-03-22 12:00:00 15 5 Nordeste 13 Este 0 -- -- 64
2020-03-22 11:00:00 13.3 4 Norte 10 Noroeste 0 -- -- 69
2020-03-22 10:00:00 10.5 6 Noroeste 10 Noroeste 0 -- -- 79
2020-03-22 09:00:00 7.9 7 Noroeste 12 Noroeste 0 -- -- 89
2020-03-22 08:00:00 6.3 4 Norte 6 Noroeste 0 -- -- 93
2020-03-22 07:00:00 6.4 3 Noroeste 9 Noroeste 0 -- -- 92
2020-03-22 06:00:00 7.4 7 Noroeste 10 Noroeste 0 -- -- 90
2020-03-22 05:00:00 7.4 2 Noroeste 5 Sudoeste 0 -- -- 91
2020-03-22 04:00:00 7.4 4 Sudoeste 10 Sudoeste 0 -- -- 91
2020-03-22 03:00:00 7.7 4 Sur 9 Este 0 -- -- 87
2020-03-22 02:00:00 8.1 3 Este 6 Nordeste 0 -- -- 87
2020-03-22 01:00:00 8.2 2 Oeste 4 Sur 0 -- -- 85
2020-03-22 00:00:00 9.3 0 Calma 5 Nordeste 0 -- -- 81
2020-03-21 23:00:00 10.4 3 Norte 10 Sudeste 0 -- -- 73
2020-03-21 22:00:00 11.7 3 Este 13 Sudeste 0 -- -- 68
2020-03-21 21:00:00 13.1 9 Sudeste 14 Este 0 -- -- 64
2020-03-21 20:00:00 14.8 4 Este 8 Nordeste 0 -- -- 62
2020-03-21 19:00:00 16.5 4 Sudeste 8 Sudeste 0 -- -- 55
2020-03-21 18:00:00 18.2 3 Este 8 Este 0 -- -- 46
2020-03-21 17:00:00 18.6 6 Sur 17 Sudeste 0 -- -- 43
2020-03-21 16:00:00 18.7 4 Sur 15 Sudeste 0 -- -- 44
2020-03-21 15:00:00 17.9 9 Sudeste 22 Sudeste 0 -- -- 47
2020-03-21 14:00:00 17.5 10 Sudeste 23 Este 0 -- -- 45
2020-03-21 13:00:00 16.3 12 Este 20 Sudeste 0 -- -- 51
2020-03-21 12:00:00 14.6 8 Sudeste 14 Este 0 -- -- 65
2020-03-21 11:00:00 12.6 7 Sudeste 12 Sudeste 0 -- -- 71
2020-03-21 10:00:00 10.3 4 Sudeste 10 Sudeste 0 -- -- 81
2020-03-21 09:00:00 7.1 3 Sur 9 Sudoeste 0 -- -- 96
2020-03-21 08:00:00 3.9 4 Sudoeste 9 Sudoeste 0 -- -- 95
2020-03-21 07:00:00 3.4 4 Sudoeste 10 Sudoeste 0 -- -- 94
2020-03-21 06:00:00 4.3 6 Sudoeste 13 Sudoeste 0 -- -- 93
2020-03-21 05:00:00 4.3 7 Sudoeste 11 Sudoeste 0 -- -- 92
2020-03-21 04:00:00 5.1 5 Sudoeste 10 Sudoeste 0 -- -- 90
2020-03-21 03:00:00 7.4 5 Este 12 Este 0 -- -- 88
2020-03-21 02:00:00 8.1 8 Este 13 Este 0 -- -- 87
2020-03-21 01:00:00 8.6 6 Este 13 Este 0 -- -- 87
2020-03-21 00:00:00 8.9 6 Este 10 Este 0 -- -- 84
2020-03-20 23:00:00 9.5 5 Este 11 Este 0 -- -- 80
2020-03-20 22:00:00 10.3 4 Este 12 Este 0 -- -- 77
2020-03-20 21:00:00 11.7 8 Este 17 Sudeste 0 -- -- 72
2020-03-20 20:00:00 12.8 10 Sudeste 19 Sudeste 0 -- -- 67
2020-03-20 19:00:00 14.7 10 Sudeste 29 Este 0 -- -- 61
2020-03-20 18:00:00 16.8 14 Este 24 Este 0 -- -- 52
2020-03-20 17:00:00 17.7 10 Sudeste 27 Este 0 -- -- 51
2020-03-20 16:00:00 17.8 17 Sudeste 28 Este 0 -- -- 50
2020-03-20 15:00:00 17.7 15 Este 28 Este 0 -- -- 53
2020-03-20 14:00:00 17.5 14 Este 24 Este 0 -- -- 52
2020-03-20 13:00:00 16.6 7 Este 15 Este 0 -- -- 61
2020-03-20 12:00:00 14.8 6 Este 12 Este 0 -- -- 72
2020-03-20 11:00:00 12.2 5 Sur 9 Sur 0 -- -- 79
2020-03-20 10:00:00 9.8 7 Sudeste 12 Sudeste 0 -- -- 87
2020-03-20 09:00:00 7.6 6 Sudeste 10 Sudeste 0 -- -- 96
2020-03-20 08:00:00 5.1 8 Sudoeste 13 Sudoeste 0 -- -- 95
2020-03-20 07:00:00 4.4 7 Sudoeste 10 Sur 0 -- -- 94
2020-03-20 06:00:00 4.4 7 Sudoeste 11 Sudoeste 0 -- -- 92
2020-03-20 05:00:00 5.5 6 Sudoeste 11 Sudoeste 0 -- -- 90
2020-03-20 04:00:00 7.4 6 Sudeste 17 Este 0 -- -- 88
2020-03-20 03:00:00 7.9 8 Este 15 Este 0 -- -- 87
2020-03-20 02:00:00 8.9 9 Este 19 Este 0 -- -- 84
2020-03-20 01:00:00 8.8 8 Sudeste 18 Sudeste 0 -- -- 84
2020-03-20 00:00:00 9.7 10 Sudeste 19 Este 0 -- -- 79
2020-03-19 23:00:00 10.3 11 Sudeste 21 Este 0 -- -- 73
2020-03-19 22:00:00 10.5 3 Este 18 Sudeste 0 -- -- 68
2020-03-19 21:00:00 11.9 9 Este 19 Sudeste 0 -- -- 57
2020-03-19 20:00:00 13 7 Este 22 Este 0 -- -- 66
2020-03-19 19:00:00 15.1 10 Este 29 Este 0 -- -- 60
2020-03-19 18:00:00 17.4 15 Este 32 Este 0 -- -- 52
2020-03-19 17:00:00 18.4 16 Este 32 Este 0 -- -- 51
2020-03-19 16:00:00 19.2 15 Este 28 Este 0 -- -- 42
2020-03-19 15:00:00 18.4 12 Este 21 Este 0 -- -- 49
2020-03-19 14:00:00 16.8 8 Este 14 Este 0 -- -- 63
2020-03-19 13:00:00 16.2 7 Este 14 Sudeste 0 -- -- 66
2020-03-19 12:00:00 14.8 5 Sudeste 10 Este 0 -- -- 73
2020-03-19 11:00:00 11.8 3 Sur 6 Sudoeste 0 -- -- 92
2020-03-19 10:00:00 8.7 2 Nordeste 4 Nordeste 0 -- -- 98
2020-03-19 09:00:00 6.8 3 Sudoeste 5 Oeste 0 -- -- 98
2020-03-19 08:00:00 5.8 0 Calma 5 Sudoeste 0 -- -- 97
2020-03-19 07:00:00 5.8 2 Sur 4 Sur 0 -- -- 97
2020-03-19 06:00:00 6 0 Calma 4 Noroeste 0 -- -- 97
2020-03-19 05:00:00 5.8 0 Calma 6 Sur 0 -- -- 96
2020-03-19 04:00:00 5.9 3 Sudeste 5 Sudeste 0 -- -- 96
2020-03-19 03:00:00 6.8 2 Sudeste 6 Este 0 -- -- 96
2020-03-19 02:00:00 6.9 3 Sur 7 Sudoeste 0 -- -- 95
2020-03-19 01:00:00 7.4 5 Sudoeste 6 Sudoeste 0 -- -- 94
2020-03-19 00:00:00 8.2 5 Sudoeste 7 Sudoeste 0 -- -- 94
2020-03-18 23:00:00 8.8 4 Sudoeste 6 Sur 0 -- -- 92
2020-03-18 22:00:00 10.1 3 Sur 7 Sudoeste 0 -- -- 92
2020-03-18 21:00:00 11 3 Sudoeste 3 Sudoeste 0 -- -- 90
2020-03-18 20:00:00 12.3 3 Sudoeste 6 Sudoeste 0 -- -- 89
2020-03-18 19:00:00 13.8 2 Oeste 5 Noroeste 0 -- -- 86
2020-03-18 18:00:00 14.4 3 Noroeste 5 Noroeste 0 -- -- 84
2020-03-18 17:00:00 14.9 0 Calma 5 Noroeste 0 -- -- 82
2020-03-18 16:00:00 14.1 3 Norte 6 Noroeste 0 -- -- 83
2020-03-18 15:00:00 13.4 2 Este 7 Noroeste 0 -- -- 87
2020-03-18 14:00:00 12.1 3 Este 9 Nordeste 0 -- -- 97
2020-03-18 13:00:00 11.2 4 Este 9 Este 0 -- -- 98
2020-03-18 12:00:00 10.5 0 Calma 8 Oeste 0 -- -- 98
2020-03-18 11:00:00 9.7 4 Norte 12 Noroeste 0 -- -- 98
2020-03-18 10:00:00 9.1 8 Noroeste 15 Noroeste 0 -- -- 98
2020-03-18 09:00:00 8.8 8 Noroeste 12 Noroeste 0 -- -- 98
2020-03-18 08:00:00 8.5 4 Norte 5 Norte 0 -- -- 97
2020-03-18 07:00:00 8.4 3 Oeste 9 Oeste 0 -- -- 97
2020-03-18 06:00:00 8.8 5 Noroeste 9 Noroeste 0 -- -- 97
2020-03-18 05:00:00 8.5 5 Noroeste 8 Noroeste 0 -- -- 96
2020-03-18 04:00:00 8.8 2 Norte 5 Oeste 0 -- -- 96
2020-03-18 03:00:00 9.4 4 Oeste 6 Noroeste 0 -- -- 96
2020-03-18 02:00:00 9.7 4 Noroeste 12 Noroeste 0 -- -- 96
2020-03-18 01:00:00 10 5 Noroeste 11 Noroeste 0 -- -- 95
2020-03-18 00:00:00 10.2 8 Noroeste 18 Noroeste 0 -- -- 95
2020-03-17 23:00:00 11.1 8 Noroeste 14 Noroeste 0 -- -- 94
2020-03-17 22:00:00 11.7 10 Noroeste 15 Noroeste 0 -- -- 94
2020-03-17 21:00:00 12.5 8 Noroeste 13 Noroeste 0 -- -- 92
2020-03-17 20:00:00 13.7 6 Sur 9 Sur 0 -- -- 84
2020-03-17 19:00:00 15.3 4 Sudeste 11 Nordeste 0 -- -- 80
2020-03-17 18:00:00 16.3 5 Nordeste 10 Nordeste 0 -- -- 76
2020-03-17 17:00:00 16.8 4 Nordeste 14 Nordeste 0 -- -- 75
2020-03-17 16:00:00 16.9 9 Este 15 Nordeste 0 -- -- 74
2020-03-17 15:00:00 15.4 7 Este 17 Este 0 -- -- 82
2020-03-17 14:00:00 14.8 8 Nordeste 16 Este 0 -- -- 86
2020-03-17 13:00:00 13.4 6 Nordeste 15 Nordeste 0.4 -- -- 91
2020-03-17 12:00:00 12.9 6 Este 19 Nordeste 0.4 -- -- 90
2020-03-17 11:00:00 12.9 8 Este 17 Este 0.2 -- -- 86
2020-03-17 10:00:00 12.4 6 Nordeste 14 Nordeste 0 -- -- 85
2020-03-17 09:00:00 12.1 3 Nordeste 14 Este 0.2 -- -- 81
2020-03-17 08:00:00 12 7 Este 16 Este 0 -- -- 78
2020-03-17 07:00:00 12.1 7 Nordeste 25 Este 0 -- -- 79
2020-03-17 06:00:00 12.2 12 Nordeste 24 Este 0 -- -- 79
2020-03-17 05:00:00 12.3 10 Nordeste 31 Este 0 -- -- 83
2020-03-17 04:00:00 12.4 13 Nordeste 31 Este 0 -- -- 84
2020-03-17 03:00:00 12.3 14 Este 31 Este 0 -- -- 86
2020-03-17 02:00:00 12.1 10 Nordeste 27 Este 0 -- -- 88
2020-03-17 01:00:00 11.7 9 Este 22 Este 0.6 -- -- 91
2020-03-17 00:00:00 11.5 10 Este 23 Este 0.6 -- -- 91
2020-03-16 23:00:00 11.2 8 Este 22 Este 0.4 -- -- 93
2020-03-16 22:00:00 10.7 5 Este 20 Este 0.8 -- -- 95
2020-03-16 21:00:00 10.4 4 Norte 8 Norte 0.4 -- -- 95
2020-03-16 20:00:00 10.5 9 Sudeste 22 Sur 0.8 -- -- 94
2020-03-16 19:00:00 10.5 7 Sudeste 27 Sudeste 0.2 -- -- 92
2020-03-16 18:00:00 11.4 16 Este 33 Este 0.2 -- -- 95
2020-03-16 17:00:00 7.9 12 Noroeste 26 Noroeste 0.2 -- -- 96
2020-03-16 16:00:00 7 15 Noroeste 31 Noroeste 0.2 -- -- 95
2020-03-16 15:00:00 6.5 20 Noroeste 37 Noroeste 0.6 -- -- 94
2020-03-16 14:00:00 6.7 14 Noroeste 24 Noroeste 0.8 -- -- 93
2020-03-16 13:00:00 7.4 18 Noroeste 30 Noroeste 0 -- -- 93
2020-03-16 12:00:00 7.1 15 Noroeste 27 Noroeste 0 -- -- 94
2020-03-16 11:00:00 6.8 16 Noroeste 31 Noroeste 0 -- -- 94
2020-03-16 10:00:00 7.2 14 Noroeste 31 Noroeste 0 -- -- 94
2020-03-16 09:00:00 8.8 16 Noroeste 28 Noroeste 0 -- -- 94
2020-03-16 08:00:00 11.1 6 Nordeste 17 Este 2 -- -- 94
2020-03-16 07:00:00 10.9 4 Este 14 Este 2.8 -- -- 94
2020-03-16 06:00:00 11 7 Este 17 Este 1.4 -- -- 94
2020-03-16 05:00:00 11.3 4 Este 15 Este 1.6 -- -- 94
2020-03-16 04:00:00 11.5 7 Sudeste 15 Este 1.8 -- -- 93
2020-03-16 03:00:00 11.8 8 Sudeste 15 Sudeste 1.4 -- -- 92
2020-03-16 02:00:00 11.8 7 Este 12 Sudeste 0.6 -- -- 92
2020-03-16 01:00:00 12.2 2 Sudoeste 25 Sudoeste 1 -- -- 89
2020-03-16 00:00:00 12.8 5 Sur 17 Este 0 -- -- 83
2020-03-15 23:00:00 12.8 9 Este 19 Este 0.6 -- -- 83
2020-03-15 22:00:00 13.3 9 Este 25 Este 0 -- -- 78
2020-03-15 21:00:00 13.4 12 Este 22 Este 0 -- -- 77
2020-03-15 20:00:00 13.7 12 Este 23 Nordeste 0 -- -- 78
2020-03-15 19:00:00 14.7 5 Noroeste 20 Este 0 -- -- 79
2020-03-15 18:00:00 15.7 5 Este 23 Este 0 -- -- 77
2020-03-15 17:00:00 16.2 6 Nordeste 18 Nordeste 0 -- -- 79
2020-03-15 16:00:00 17.2 5 Norte 24 Este 1.6 -- -- 74
2020-03-15 15:00:00 20.1 12 Este 24 Este 0 -- -- 51
2020-03-15 14:00:00 20 6 Nordeste 16 Este 0 -- -- 54
2020-03-15 13:00:00 17.7 6 Sudeste 13 Sudeste 0 -- -- 60
2020-03-15 12:00:00 14.4 4 Sudoeste 8 Sudoeste 0 -- -- 74
2020-03-15 11:00:00 9.8 2 Norte 6 Norte 0 -- -- 87
2020-03-15 10:00:00 7.5 3 Sudoeste 8 Sudoeste 0 -- -- 95
2020-03-15 09:00:00 5.6 4 Oeste 8 Sudoeste 0 -- -- 94
2020-03-15 08:00:00 3.7 5 Sudoeste 9 Sur 0 -- -- 92
2020-03-15 07:00:00 1.7 0 Calma 6 Este 0 -- -- 90
2020-03-15 06:00:00 1.3 4 Sudoeste 8 Sudoeste 0 -- -- 87
2020-03-15 05:00:00 2.1 3 Sudoeste 7 Este 0 -- -- 86
2020-03-15 04:00:00 1.9 5 Sudoeste 8 Sudoeste 0 -- -- 84
2020-03-15 03:00:00 3.5 3 Sudoeste 5 Sur 0 -- -- 80
2020-03-15 02:00:00 4.2 0 Calma 6 Este 0 -- -- 77
2020-03-15 01:00:00 5.6 4 Este 8 Este 0 -- -- 73
2020-03-15 00:00:00 6.5 5 Sur 9 Sudoeste 0 -- -- 68
2020-03-14 23:00:00 8 7 Sudoeste 14 Sudoeste 0 -- -- 61
2020-03-14 22:00:00 9.1 11 Sudoeste 14 Sudoeste 0 -- -- 56
2020-03-14 21:00:00 10.6 8 Sudoeste 15 Oeste 0 -- -- 53
2020-03-14 20:00:00 13.8 12 Sudoeste 19 Oeste 0 -- -- 43
2020-03-14 19:00:00 17.8 15 Oeste 24 Oeste 0 -- -- 32
2020-03-14 18:00:00 20.3 10 Oeste 21 Noroeste 0 -- -- 28
2020-03-14 17:00:00 20.1 14 Noroeste 23 Noroeste 0 -- -- 31
2020-03-14 16:00:00 19.6 16 Noroeste 28 Noroeste 0 -- -- 30
2020-03-14 15:00:00 18.6 16 Noroeste 30 Noroeste 0 -- -- 31
2020-03-14 14:00:00 17.3 16 Noroeste 32 Noroeste 0 -- -- 34
2020-03-14 13:00:00 15.7 18 Noroeste 33 Noroeste 0 -- -- 39
2020-03-14 12:00:00 14.9 19 Noroeste 37 Noroeste 0 -- -- 37
2020-03-14 11:00:00 13.2 22 Noroeste 38 Oeste 0 -- -- 42
2020-03-14 10:00:00 11.9 22 Oeste 36 Noroeste 0 -- -- 49
2020-03-14 09:00:00 10 16 Oeste 25 Oeste 0 -- -- 61
2020-03-14 08:00:00 7.1 5 Oeste 20 Oeste 0 -- -- 77
2020-03-14 07:00:00 6.7 7 Oeste 16 Oeste 0 -- -- 78
2020-03-14 06:00:00 8.1 10 Oeste 31 Noroeste 0 -- -- 73
2020-03-14 05:00:00 8.2 12 Oeste 18 Oeste 0 -- -- 74
2020-03-14 04:00:00 8.9 11 Noroeste 18 Oeste 0 -- -- 71
2020-03-14 03:00:00 8.6 3 Norte 12 Noroeste 0 -- -- 76
2020-03-14 02:00:00 9.2 6 Norte 13 Noroeste 0 -- -- 74
2020-03-14 01:00:00 10.3 5 Norte 11 Noroeste 0 -- -- 70
2020-03-14 00:00:00 11.3 7 Noroeste 21 Noroeste 0 -- -- 67
2020-03-13 23:00:00 12.4 9 Noroeste 27 Oeste 0 -- -- 63
2020-03-13 22:00:00 12.9 13 Oeste 29 Noroeste 0 -- -- 62
2020-03-13 21:00:00 14.2 15 Noroeste 27 Oeste 0 -- -- 61
2020-03-13 20:00:00 15.3 19 Oeste 34 Noroeste 0 -- -- 61
2020-03-13 19:00:00 17.3 10 Noroeste 17 Noroeste 0 -- -- 57
2020-03-13 18:00:00 18.7 3 Sur 6 Sur 0 -- -- 52
2020-03-13 17:00:00 18.2 4 Noroeste 10 Noroeste 0 -- -- 54
2020-03-13 16:00:00 18.4 5 Noroeste 14 Norte 0 -- -- 53
2020-03-13 15:00:00 18.8 7 Oeste 14 Norte 0 -- -- 50
2020-03-13 14:00:00 18.4 7 Noroeste 15 Noroeste 0 -- -- 51
2020-03-13 13:00:00 16.7 9 Norte 22 Noroeste 0 -- -- 55
2020-03-13 12:00:00 15.7 11 Noroeste 30 Noroeste 0 -- -- 59
2020-03-13 11:00:00 14.8 18 Noroeste 31 Noroeste 0 -- -- 59
2020-03-13 10:00:00 13.7 21 Noroeste 42 Noroeste 0 -- -- 62
2020-03-13 09:00:00 12.3 21 Noroeste 38 Oeste 0 -- -- 67
2020-03-13 08:00:00 11.6 21 Oeste 40 Oeste 0 -- -- 71
2020-03-13 07:00:00 11.6 21 Oeste 36 Noroeste 0 -- -- 74
2020-03-13 06:00:00 11.9 14 Oeste 28 Oeste 0 -- -- 74
2020-03-13 05:00:00 12.5 16 Oeste 33 Noroeste 0 -- -- 73
2020-03-13 04:00:00 12.8 17 Noroeste 30 Oeste 0 -- -- 73
2020-03-13 03:00:00 13 18 Noroeste 35 Noroeste 0 -- -- 72
2020-03-13 02:00:00 13.1 12 Noroeste 33 Noroeste 0 -- -- 73
2020-03-13 01:00:00 13.4 18 Noroeste 36 Noroeste 0 -- -- 72
2020-03-13 00:00:00 14.3 20 Oeste 48 Oeste 0 -- -- 68
2020-03-12 23:00:00 15.3 26 Oeste 45 Oeste 0 -- -- 65
2020-03-12 22:00:00 16 24 Noroeste 47 Oeste 0 -- -- 64
2020-03-12 21:00:00 17.5 24 Noroeste 45 Oeste 0 -- -- 64
2020-03-12 20:00:00 19.6 24 Oeste 39 Oeste 0 -- -- 58
2020-03-12 19:00:00 21.2 11 Noroeste 23 Noroeste 0 -- -- 56
2020-03-12 18:00:00 22.8 12 Noroeste 20 Noroeste 0 -- -- 55
2020-03-12 17:00:00 26 8 Oeste 13 Oeste 0 -- -- 44
2020-03-12 16:00:00 26.5 6 Sur 13 Sudoeste 0 -- -- 41
2020-03-12 15:00:00 25.5 5 Sudeste 11 Sudeste 0 -- -- 44
2020-03-12 14:00:00 24.4 5 Este 12 Este 0 -- -- 44
2020-03-12 13:00:00 22.9 5 Sur 9 Este 0 -- -- 49
2020-03-12 12:00:00 20.4 5 Sudeste 9 Este 0 -- -- 52
2020-03-12 11:00:00 17.9 4 Este 8 Sur 0 -- -- 60
2020-03-12 10:00:00 14.8 3 Sudeste 8 Sudoeste 0 -- -- 69
2020-03-12 09:00:00 10 0 Calma 4 Este 0 -- -- 85
2020-03-12 08:00:00 6.4 0 Calma 6 Sudeste 0 -- -- 90
2020-03-12 07:00:00 7 0 Calma 7 Nordeste 0 -- -- 88
2020-03-12 06:00:00 7.4 3 Sudeste 7 Sudoeste 0 -- -- 89
2020-03-12 05:00:00 7.2 3 Oeste 6 Sudoeste 0 -- -- 86
2020-03-12 04:00:00 8.2 0 Calma 4 Sudoeste 0 -- -- 83
2020-03-12 03:00:00 9.5 2 Este 4 Este 0 -- -- 80
2020-03-12 02:00:00 9.5 0 Calma 6 Oeste 0 -- -- 79
2020-03-12 01:00:00 10.1 6 Oeste 8 Oeste 0 -- -- 79
2020-03-12 00:00:00 11.3 3 Sudoeste 7 Sudoeste 0 -- -- 74
2020-03-11 23:00:00 11.9 6 Sudoeste 9 Sudoeste 0 -- -- 74
2020-03-11 22:00:00 14.4 0 Calma 6 Sudoeste 0 -- -- 65
2020-03-11 21:00:00 16.1 2 Sudeste 10 Este 0 -- -- 61
2020-03-11 20:00:00 19.1 2 Sur 13 Sur 0 -- -- 50
2020-03-11 19:00:00 21.4 10 Sur 12 Sur 0 -- -- 44
2020-03-11 18:00:00 25.6 4 Sudeste 8 Sudeste 0 -- -- 30
2020-03-11 17:00:00 26.1 2 Oeste 10 Noroeste 0 -- -- 30
2020-03-11 16:00:00 25.4 8 Noroeste 19 Norte 0 -- -- 31
2020-03-11 15:00:00 24.3 14 Noroeste 25 Noroeste 0 -- -- 35
2020-03-11 14:00:00 23.2 14 Noroeste 30 Noroeste 0 -- -- 41
2020-03-11 13:00:00 21.5 16 Noroeste 24 Noroeste 0 -- -- 48
2020-03-11 12:00:00 19.2 13 Noroeste 22 Noroeste 0 -- -- 52
2020-03-11 11:00:00 16.3 12 Noroeste 17 Noroeste 0 -- -- 60
2020-03-11 10:00:00 13.7 10 Noroeste 15 Norte 0 -- -- 63
2020-03-11 09:00:00 11.2 4 Noroeste 7 Noroeste 0 -- -- 68
2020-03-11 08:00:00 6.9 4 Oeste 7 Noroeste 0 -- -- 79
2020-03-11 07:00:00 7.6 4 Oeste 10 Noroeste 0 -- -- 71
2020-03-11 06:00:00 7.2 0 Calma 5 Sur 0 -- -- 76
2020-03-11 05:00:00 8.2 3 Norte 6 Sudeste 0 -- -- 73
2020-03-11 04:00:00 9.1 3 Este 8 Nordeste 0 -- -- 71
2020-03-11 03:00:00 9.6 7 Noroeste 11 Noroeste 0 -- -- 71
2020-03-11 02:00:00 11 6 Noroeste 10 Noroeste 0 -- -- 61
2020-03-11 01:00:00 12.3 6 Oeste 11 Oeste 0 -- -- 53
2020-03-11 00:00:00 14 10 Oeste 22 Oeste 0 -- -- 47
2020-03-10 23:00:00 13.2 6 Oeste 18 Sudoeste 0 -- -- 55
2020-03-10 22:00:00 14.5 10 Sudoeste 19 Sudoeste 0 -- -- 56
2020-03-10 21:00:00 17 13 Sudoeste 26 Noroeste 0 -- -- 50
2020-03-10 20:00:00 17 5 Sur 18 Oeste 0 -- -- 49
2020-03-10 19:00:00 19.8 11 Oeste 22 Noroeste 0 -- -- 42
2020-03-10 18:00:00 20.8 14 Noroeste 22 Noroeste 0 -- -- 45
2020-03-10 17:00:00 21.6 12 Noroeste 28 Oeste 0 -- -- 41
2020-03-10 16:00:00 22.2 17 Noroeste 36 Noroeste 0 -- -- 30
2020-03-10 15:00:00 21.6 23 Noroeste 39 Oeste 0 -- -- 28
2020-03-10 14:00:00 21.2 22 Oeste 44 Oeste 0 -- -- 30
2020-03-10 13:00:00 20.2 26 Noroeste 47 Noroeste 0 -- -- 31
2020-03-10 12:00:00 17.8 17 Noroeste 38 Noroeste 0 -- -- 44
2020-03-10 11:00:00 16.7 26 Noroeste 37 Noroeste 0 -- -- 38
2020-03-10 10:00:00 15.6 24 Oeste 38 Oeste 0 -- -- 42
2020-03-10 09:00:00 10.7 3 Noroeste 10 Noroeste 0 -- -- 63
2020-03-10 08:00:00 9.4 4 Noroeste 16 Noroeste 0 -- -- 65
2020-03-10 07:00:00 9.1 10 Oeste 18 Oeste 0 -- -- 65
2020-03-10 06:00:00 9.8 11 Noroeste 22 Noroeste 0 -- -- 63
2020-03-10 05:00:00 10 10 Oeste 27 Oeste 0 -- -- 62
2020-03-10 04:00:00 10 12 Noroeste 40 Oeste 0 -- -- 63
2020-03-10 03:00:00 10.1 25 Noroeste 45 Noroeste 0 -- -- 64
2020-03-10 02:00:00 10.3 28 Noroeste 50 Noroeste 0 -- -- 63
2020-03-10 01:00:00 10.3 25 Noroeste 50 Oeste 0 -- -- 63
2020-03-10 00:00:00 9.8 29 Oeste 53 Noroeste 0 -- -- 67
2020-03-09 23:00:00 10.2 32 Oeste 56 Oeste 0 -- -- 65
2020-03-09 22:00:00 10.6 33 Oeste 63 Oeste 0 -- -- 63
2020-03-09 21:00:00 11.1 37 Noroeste 60 Oeste 0 -- -- 62
2020-03-09 20:00:00 12 42 Noroeste 62 Noroeste 0 -- -- 58
2020-03-09 19:00:00 12.7 35 Noroeste 63 Noroeste 0 -- -- 55
2020-03-09 18:00:00 14.1 34 Oeste 60 Noroeste 0 -- -- 52
2020-03-09 17:00:00 14.5 32 Noroeste 64 Noroeste 0 -- -- 51
2020-03-09 16:00:00 15.4 44 Noroeste 78 Noroeste 0 -- -- 47
2020-03-09 15:00:00 16 35 Noroeste 69 Oeste 0 -- -- 43
2020-03-09 14:00:00 15.6 39 Noroeste 67 Noroeste 0 -- -- 43
2020-03-09 13:00:00 14.4 39 Noroeste 61 Noroeste 0 -- -- 48
2020-03-09 12:00:00 13.7 35 Noroeste 62 Oeste 0 -- -- 51
2020-03-09 11:00:00 12.8 36 Noroeste 59 Noroeste 0 -- -- 53
2020-03-09 10:00:00 11.8 33 Noroeste 51 Noroeste 0 -- -- 57
2020-03-09 09:00:00 11.1 24 Oeste 41 Oeste 0 -- -- 60
2020-03-09 08:00:00 9.8 19 Oeste 37 Oeste 0 -- -- 68
2020-03-09 07:00:00 10.5 27 Oeste 50 Noroeste 0 -- -- 66
2020-03-09 06:00:00 10.4 20 Oeste 38 Oeste 0 -- -- 69
2020-03-09 05:00:00 10.9 20 Oeste 42 Oeste 0 -- -- 71
2020-03-09 04:00:00 11.2 22 Oeste 39 Noroeste 0 -- -- 69
2020-03-09 03:00:00 11.1 24 Oeste 39 Oeste 0 -- -- 69
2020-03-09 02:00:00 11.2 23 Oeste 42 Oeste 0 -- -- 71
2020-03-09 01:00:00 11.5 23 Oeste 35 Noroeste 0 -- -- 72
2020-03-09 00:00:00 9.8 6 Oeste 11 Oeste 0 -- -- 74
2020-03-08 23:00:00 10.7 6 Oeste 11 Oeste 0 -- -- 70
2020-03-08 22:00:00 11.8 9 Oeste 23 Oeste 0 -- -- 65
2020-03-08 21:00:00 13.6 15 Oeste 24 Oeste 0 -- -- 56
2020-03-08 20:00:00 14.3 5 Oeste 13 Noroeste 0 -- -- 51
2020-03-08 19:00:00 16.1 8 Noroeste 19 Noroeste 0 -- -- 47
2020-03-08 18:00:00 17.4 14 Noroeste 23 Noroeste 0 -- -- 42
2020-03-08 17:00:00 18.1 16 Noroeste 26 Noroeste 0 -- -- 42
2020-03-08 16:00:00 18.8 20 Noroeste 34 Noroeste 0 -- -- 39
2020-03-08 15:00:00 18.3 11 Noroeste 22 Noroeste 0 -- -- 44
2020-03-08 14:00:00 18.1 12 Noroeste 21 Noroeste 0 -- -- 48
2020-03-08 13:00:00 16.7 6 Noroeste 13 Noroeste 0 -- -- 53
2020-03-08 12:00:00 15 3 Norte 8 Este 0 -- -- 57
2020-03-08 11:00:00 11.4 5 Noroeste 14 Noroeste 0 -- -- 66
2020-03-08 10:00:00 8.2 6 Noroeste 11 Noroeste 0 -- -- 76
2020-03-08 09:00:00 5.3 0 Calma 6 Sudoeste 0 -- -- 87
2020-03-08 08:00:00 2 5 Sudoeste 9 Sudoeste 0 -- -- 90
2020-03-08 07:00:00 2.6 4 Sudeste 8 Sudoeste 0 -- -- 87
2020-03-08 06:00:00 3.4 4 Sur 8 Sudoeste 0 -- -- 86
2020-03-08 05:00:00 4 4 Oeste 9 Sudoeste 0 -- -- 84
2020-03-08 04:00:00 5.1 8 Sudoeste 13 Sudoeste 0 -- -- 80
2020-03-08 03:00:00 6.9 7 Oeste 17 Oeste 0 -- -- 74
2020-03-08 02:00:00 8.7 10 Oeste 24 Oeste 0 -- -- 69
2020-03-08 01:00:00 10.4 15 Oeste 24 Oeste 0 -- -- 65
2020-03-08 00:00:00 10.9 13 Oeste 44 Oeste 0 -- -- 66